Venango, NE (69168)

9:24 AM MST on February 13, 2016 (GMT -0700)
Searle | | Change Station
CLOSE
Current Station
Airport
Location: Ogallala,
Elevation: 3278 ft
Nearby Weather Stations
Active Advisory: Special Statement

Elev 3278 ft 41.12 °N, 101.77 °W | Updated 9 minutes ago

Overcast
Overcast
28 °F
Feels Like 17 °F
N
15
Wind Variable Wind from South

Today
High -- | Low -- °F
--% Chance of Precip.
Yesterday
High -- | Low -- °F
Precip. -- in
Pressure 30.16 in
Visibility 3.0 miles
Clouds Overcast 500 ft
Windchill 17 °F
Dew Point 26 °F
Humidity 93%
Rainfall 0.00 in
Snow Depth Not available.
6:44 AM 5:19 PM
Waxing Crescent, 32% visible
METAR KOGA 131615Z AUTO 17013KT 3SM BR OVC005 M02/M03 A3016 RMK AO2 T10211031
Pressure 30.16 in
Visibility 3.0 miles
Clouds Overcast 500 ft
Windchill 17 °F
Dew Point 26 °F
Humidity 93%
Rainfall 0.00 in
Snow Depth Not available.
6:44 AM 5:19 PM
Waxing Crescent, 32% visible
METAR KOGA 131615Z AUTO 17013KT 3SM BR OVC005 M02/M03 A3016 RMK AO2 T10211031

10-Day Weather Forecast

Almanac

Astronomy

Feb. 13, 2016 Rise Set
Actual Time
Civil Twilight
Nautical Twilight
Astronomical Twilight
Moon
Length of Visible Light
Length of Day
Tomorrow will be .
, % of the Moon is Illuminated

Today's Extremes

State Highs State Lows

Community

WunderPhotos

Upload Photos

1,892,599 photos uploaded!

WunderBlog® & News

Nearby

Air Quality

  Air Quality AQ Index Pollutant
Not available.

Snow Depth

Station Depth Elevation

Earthquake Activity

City Distance Mag. Time & Date
Minimum magnitude displayed is 2.5.

Coastal Water Temperatures

Place Temperature

Stations

Nearby Weather Stations

Station Location Temp. Windchill Dew Point Humidity Wind Precip. Elev Updated Type
                   

Watches & Warnings

Special Statement
Issued: 7:47 AM MST Feb. 13, 2016 – National Weather Service

... Freezing drizzle leading to slick conditions...

Freezing drizzle and freezing fog will continue through early
afternoon across the western sandhills and southwest Nebraska. A
thin glaze of ice is possible... resulting in slick roads and
walkways.


Ds


847 am CST Sat Feb 13 2016 /747 am MST Sat Feb 13 2016/

... Freezing drizzle leading to slick conditions...

Freezing drizzle and freezing fog will continue through early
afternoon across the western sandhills and southwest Nebraska. A
thin glaze of ice is possible... resulting in slick roads and
walkways.


Ds